createdAt,value
2024-02-21T00:01:19.614Z,11.23
2024-02-21T00:03:22.864Z,9.00
2024-02-21T00:05:25.901Z,11.00
2024-02-21T00:07:28.437Z,11.15
2024-02-21T00:09:33.178Z,13.15
2024-02-21T00:11:35.561Z,8.32
2024-02-21T00:13:38.499Z,9.40
2024-02-21T00:15:40.800Z,10.35
2024-02-21T00:17:47.382Z,10.88
2024-02-21T00:19:49.700Z,10.38
2024-02-21T00:21:52.288Z,10.20
2024-02-21T00:23:54.748Z,9.93
2024-02-21T00:25:57.288Z,9.82
2024-02-21T00:27:59.470Z,12.55
2024-02-21T00:30:02.151Z,16.45
2024-02-21T00:32:05.008Z,9.40
2024-02-21T00:34:07.562Z,8.90
2024-02-21T00:36:09.864Z,6.95
2024-02-21T00:38:12.415Z,8.95
2024-02-21T00:40:17.666Z,8.40
2024-02-21T00:42:20.118Z,7.18
2024-02-21T00:44:22.438Z,11.45
2024-02-21T00:46:24.989Z,8.50
2024-02-21T00:48:27.243Z,8.10
2024-02-21T00:50:29.818Z,6.68
2024-02-21T00:52:32.050Z,7.47
2024-02-21T00:54:44.386Z,6.68
2024-02-21T00:56:52.636Z,7.28
2024-02-21T00:58:55.200Z,6.35
2024-02-21T01:00:57.513Z,9.00
2024-02-21T01:02:59.902Z,6.93
2024-02-21T01:05:03.403Z,7.80
2024-02-21T01:07:06.180Z,6.07
2024-02-21T01:09:08.395Z,5.22
2024-02-21T01:11:10.942Z,6.05
2024-02-21T01:13:13.425Z,5.72
2024-02-21T01:15:15.897Z,6.10
2024-02-21T01:17:18.090Z,7.68
2024-02-21T01:19:20.651Z,6.57
2024-02-21T01:21:22.891Z,5.03
2024-02-21T01:23:25.405Z,6.53
2024-02-21T01:25:27.583Z,8.95
2024-02-21T01:27:30.340Z,6.50
2024-02-21T01:29:32.545Z,5.63
2024-02-21T01:31:35.089Z,6.18
2024-02-21T01:33:37.351Z,8.30
2024-02-21T01:35:39.767Z,7.35
2024-02-21T01:37:42.274Z,8.57
2024-02-21T01:39:44.869Z,4.93
2024-02-21T01:41:47.040Z,5.05
2024-02-21T01:43:49.574Z,6.60
2024-02-21T01:45:54.281Z,9.02
2024-02-21T01:47:57.282Z,7.00
2024-02-21T01:49:59.636Z,7.05
2024-02-21T01:52:03.977Z,7.50
2024-02-21T01:54:06.747Z,8.25
2024-02-21T01:56:10.716Z,9.20
2024-02-21T01:58:15.144Z,6.57
2024-02-21T02:00:18.136Z,4.63
2024-02-21T02:02:20.364Z,5.53
2024-02-21T02:04:23.940Z,3.25
2024-02-21T02:06:26.426Z,4.60
2024-02-21T02:08:29.156Z,7.80
2024-02-21T02:10:31.434Z,2.00
2024-02-21T02:12:33.990Z,4.05
2024-02-21T02:14:36.131Z,4.35
2024-02-21T02:16:38.634Z,5.40
2024-02-21T02:18:40.947Z,4.32
2024-02-21T02:20:45.745Z,8.80
2024-02-21T02:22:50.190Z,2.55
2024-02-21T02:24:52.857Z,4.47
2024-02-21T02:26:54.980Z,5.13
2024-02-21T02:28:57.873Z,3.92
2024-02-21T02:31:00.114Z,7.15
2024-02-21T02:33:03.006Z,5.90
2024-02-21T02:35:05.623Z,5.18
2024-02-21T02:37:08.050Z,3.60
2024-02-21T02:39:10.243Z,3.65
2024-02-21T02:41:12.616Z,5.88
2024-02-21T02:43:14.874Z,3.83
2024-02-21T02:45:18.976Z,4.97
2024-02-21T02:47:21.203Z,3.38
2024-02-21T02:49:23.714Z,7.10
2024-02-21T02:51:25.923Z,5.90
2024-02-21T02:53:28.708Z,4.32
2024-02-21T02:55:31.357Z,4.95
2024-02-21T02:57:34.260Z,6.88
2024-02-21T02:59:36.538Z,6.18
2024-02-21T03:01:39.630Z,4.15
2024-02-21T03:03:41.997Z,4.55
2024-02-21T03:05:44.589Z,2.78
2024-02-21T03:07:47.713Z,5.18
2024-02-21T03:09:50.554Z,4.43
2024-02-21T03:11:53.757Z,7.65
2024-02-21T03:13:58.182Z,13.73
2024-02-21T03:16:00.494Z,6.03
2024-02-21T03:18:03.050Z,6.53
2024-02-21T03:20:12.312Z,8.93
2024-02-21T03:22:16.793Z,4.47
2024-02-21T03:24:19.913Z,5.72
2024-02-21T03:26:22.350Z,5.85
2024-02-21T03:28:24.583Z,3.33
2024-02-21T03:30:27.001Z,2.92
2024-02-21T03:32:29.983Z,4.00
2024-02-21T03:34:32.905Z,7.30
2024-02-21T03:36:35.339Z,7.55
2024-02-21T03:38:37.750Z,7.55
2024-02-21T03:40:40.078Z,5.25
2024-02-21T03:42:42.610Z,4.10
2024-02-21T03:44:44.822Z,5.30
2024-02-21T03:46:47.834Z,4.03
2024-02-21T03:48:50.036Z,5.65
2024-02-21T03:50:52.683Z,6.50
2024-02-21T03:52:54.991Z,5.80
2024-02-21T03:54:57.563Z,7.40
2024-02-21T03:56:59.792Z,6.53
2024-02-21T03:59:03.071Z,8.20
2024-02-21T04:01:05.390Z,5.20
2024-02-21T04:03:08.329Z,6.47
2024-02-21T04:05:12.719Z,8.57
2024-02-21T04:07:16.154Z,8.63
2024-02-21T04:09:18.733Z,6.38
2024-02-21T04:11:21.339Z,6.63
2024-02-21T04:13:24.133Z,8.07
2024-02-21T04:15:26.623Z,4.78
2024-02-21T04:17:29.426Z,5.88
2024-02-21T04:19:32.461Z,8.55
2024-02-21T04:21:36.591Z,6.65
2024-02-21T04:23:39.237Z,8.48
2024-02-21T04:25:41.487Z,4.97
2024-02-21T04:27:44.015Z,4.60
2024-02-21T04:29:46.251Z,3.50
2024-02-21T04:31:48.863Z,6.65
2024-02-21T04:33:51.114Z,8.13
2024-02-21T04:35:55.988Z,9.20
2024-02-21T04:37:58.246Z,7.45
2024-02-21T04:40:01.153Z,4.97
2024-02-21T04:42:03.762Z,9.85
2024-02-21T04:44:06.360Z,6.95
2024-02-21T04:46:08.588Z,9.60
2024-02-21T04:48:10.994Z,5.93
2024-02-21T04:50:14.375Z,11.93
2024-02-21T04:52:16.981Z,6.25
2024-02-21T04:54:19.170Z,6.35
2024-02-21T04:56:21.646Z,8.18
2024-02-21T04:58:23.907Z,5.63
2024-02-21T05:00:26.529Z,6.65
2024-02-21T05:02:28.905Z,8.45
2024-02-21T05:04:31.529Z,5.25
2024-02-21T05:06:38.055Z,5.07
2024-02-21T05:08:41.685Z,7.85
2024-02-21T05:10:43.922Z,5.53
2024-02-21T05:12:46.484Z,8.65
2024-02-21T05:14:48.943Z,9.50
2024-02-21T05:16:51.593Z,11.43
2024-02-21T05:18:54.222Z,9.93
2024-02-21T05:20:56.679Z,9.23
2024-02-21T05:22:58.920Z,7.60
2024-02-21T05:25:01.431Z,8.73
2024-02-21T05:27:03.796Z,7.63
2024-02-21T05:29:06.230Z,10.00
2024-02-21T05:31:08.423Z,7.57
2024-02-21T05:33:11.087Z,7.25
2024-02-21T05:35:13.884Z,12.25
2024-02-21T05:37:16.778Z,5.50
2024-02-21T05:39:19.633Z,11.07
2024-02-21T05:41:22.112Z,8.38
2024-02-21T05:43:24.296Z,17.08
2024-02-21T05:45:26.791Z,9.93
2024-02-21T05:47:36.645Z,10.02
2024-02-21T05:49:41.083Z,6.53
2024-02-21T05:51:46.340Z,8.45
2024-02-21T05:53:48.927Z,8.77
2024-02-21T05:55:51.149Z,6.28
2024-02-21T05:57:56.566Z,10.27
2024-02-21T05:59:58.743Z,11.15
2024-02-21T06:02:01.372Z,8.57
2024-02-21T06:04:03.757Z,9.07
2024-02-21T06:06:07.818Z,4.60
2024-02-21T06:08:10.429Z,6.97
2024-02-21T06:10:13.031Z,6.75
2024-02-21T06:12:15.183Z,6.07
2024-02-21T06:14:17.687Z,9.10
2024-02-21T06:16:20.463Z,6.68
2024-02-21T06:18:23.046Z,7.10
2024-02-21T06:20:25.365Z,6.82
2024-02-21T06:22:27.844Z,8.68
2024-02-21T06:24:30.180Z,5.53
2024-02-21T06:26:32.709Z,8.30
2024-02-21T06:28:34.896Z,7.03
2024-02-21T06:30:37.675Z,5.80
2024-02-21T06:32:39.812Z,6.05
2024-02-21T06:34:42.373Z,11.25
2024-02-21T06:36:46.395Z,7.68
2024-02-21T06:38:48.946Z,6.93
2024-02-21T06:40:53.450Z,8.90
2024-02-21T06:42:56.034Z,5.47
2024-02-21T06:44:58.304Z,8.55
2024-02-21T06:47:00.954Z,12.38
2024-02-21T06:49:05.152Z,11.88
2024-02-21T06:51:07.678Z,7.40
2024-02-21T06:53:09.963Z,10.18
2024-02-21T06:55:12.999Z,12.13
2024-02-21T06:57:16.623Z,12.40
2024-02-21T06:59:19.289Z,8.45
2024-02-21T07:01:21.737Z,13.38
2024-02-21T07:03:27.336Z,10.82
2024-02-21T07:05:29.775Z,11.52
2024-02-21T07:07:33.513Z,15.10
2024-02-21T07:09:35.710Z,11.82
2024-02-21T07:11:38.251Z,10.45
2024-02-21T07:13:40.554Z,9.40
2024-02-21T07:15:43.377Z,9.32
2024-02-21T07:17:45.627Z,10.45
2024-02-21T07:19:48.119Z,12.30
2024-02-21T07:21:50.346Z,9.18
2024-02-21T07:23:52.866Z,11.07
2024-02-21T07:25:55.060Z,19.95
2024-02-21T07:27:57.613Z,14.77
2024-02-21T07:29:59.864Z,14.60
2024-02-21T07:32:03.508Z,12.50
2024-02-21T07:34:05.673Z,13.63
2024-02-21T07:36:09.934Z,11.40
2024-02-21T07:38:14.239Z,11.43
2024-02-21T07:40:17.930Z,23.35
2024-02-21T07:42:20.214Z,11.80
2024-02-21T07:44:22.621Z,10.95
2024-02-21T07:46:25.048Z,8.23
2024-02-21T07:48:28.084Z,10.88
2024-02-21T07:50:30.661Z,13.63
2024-02-21T07:52:33.425Z,9.68
2024-02-21T07:54:35.593Z,11.25
2024-02-21T07:56:38.114Z,9.63
2024-02-21T07:58:41.198Z,11.20
2024-02-21T08:00:43.712Z,9.30
2024-02-21T08:02:46.032Z,9.30
2024-02-21T08:04:48.812Z,8.23
2024-02-21T08:06:57.438Z,8.80
2024-02-21T08:09:01.752Z,9.27
2024-02-21T08:11:04.251Z,9.82
2024-02-21T08:13:07.421Z,13.32
2024-02-21T08:15:11.991Z,13.55
2024-02-21T08:17:14.542Z,13.18
2024-02-21T08:19:17.396Z,11.20
2024-02-21T08:21:19.952Z,12.38
2024-02-21T08:23:24.950Z,15.68
2024-02-21T08:25:27.416Z,11.20
2024-02-21T08:27:29.679Z,12.60
2024-02-21T08:29:32.107Z,19.15
2024-02-21T08:31:35.772Z,12.35
2024-02-21T08:33:38.477Z,11.68
2024-02-21T08:35:41.131Z,17.30
2024-02-21T08:37:44.574Z,15.60
2024-02-21T08:39:48.387Z,13.00
2024-02-21T08:41:57.345Z,13.88
2024-02-21T08:44:00.367Z,12.32
2024-02-21T08:46:03.111Z,9.90
2024-02-21T08:48:06.000Z,8.07
2024-02-21T08:50:19.184Z,18.73
2024-02-21T08:52:29.130Z,8.63
2024-02-21T08:54:31.656Z,8.48
2024-02-21T08:56:34.063Z,10.45
2024-02-21T08:58:40.935Z,10.00
2024-02-21T09:00:43.205Z,9.82
2024-02-21T09:02:45.817Z,17.02
2024-02-21T09:04:48.164Z,10.00
2024-02-21T09:06:50.761Z,11.88
2024-02-21T09:08:53.037Z,10.05
2024-02-21T09:10:55.521Z,15.10
2024-02-21T09:12:57.864Z,13.23
2024-02-21T09:15:00.491Z,10.70
2024-02-21T09:17:03.072Z,10.23
2024-02-21T09:19:05.856Z,11.57
2024-02-21T09:21:07.978Z,11.85
2024-02-21T09:23:10.899Z,12.77
2024-02-21T09:25:13.633Z,10.18
2024-02-21T09:27:16.168Z,11.57
2024-02-21T09:29:18.542Z,12.15
2024-02-21T09:31:21.302Z,11.45
2024-02-21T09:33:30.783Z,12.20
2024-02-21T09:35:35.252Z,9.43
2024-02-21T09:37:37.932Z,11.18
2024-02-21T09:39:40.474Z,14.40
2024-02-21T09:41:49.093Z,10.05
2024-02-21T09:43:51.701Z,12.13
2024-02-21T09:45:59.607Z,9.27
2024-02-21T09:48:35.876Z,8.52
2024-02-21T09:50:44.649Z,10.43
2024-02-21T09:52:47.821Z,11.07
2024-02-21T09:54:50.319Z,11.18
2024-02-21T09:56:53.225Z,8.57
2024-02-21T09:58:56.231Z,7.95
2024-02-21T10:00:59.867Z,13.55
2024-02-21T10:03:02.144Z,11.38
2024-02-21T10:05:06.254Z,9.23
2024-02-21T10:07:09.132Z,9.75
2024-02-21T10:09:29.476Z,12.52
2024-02-21T10:11:32.651Z,11.05
2024-02-21T10:13:35.216Z,8.77
2024-02-21T10:15:37.835Z,8.93
2024-02-21T10:17:41.434Z,16.52
2024-02-21T10:19:43.708Z,8.73
2024-02-21T10:22:00.971Z,10.35
2024-02-21T10:24:03.282Z,11.15
2024-02-21T10:26:09.199Z,10.90
2024-02-21T10:28:13.897Z,14.68
2024-02-21T10:30:17.182Z,15.98
2024-02-21T10:32:19.504Z,10.68
2024-02-21T10:34:22.366Z,10.85
2024-02-21T10:36:28.111Z,14.05
2024-02-21T10:38:30.714Z,12.10
2024-02-21T10:40:33.254Z,7.75
2024-02-21T10:42:38.791Z,11.70
2024-02-21T10:44:42.685Z,7.88
2024-02-21T10:46:45.727Z,12.05
2024-02-21T10:48:49.477Z,11.85
2024-02-21T10:51:10.168Z,11.57
2024-02-21T10:53:38.838Z,12.00
2024-02-21T10:55:50.297Z,13.55
2024-02-21T10:57:53.370Z,10.48
2024-02-21T11:00:01.734Z,14.60
2024-02-21T11:02:04.698Z,13.95
2024-02-21T11:04:13.406Z,13.90
2024-02-21T11:06:17.435Z,8.95
2024-02-21T11:08:20.445Z,14.18
2024-02-21T11:10:25.715Z,17.38
2024-02-21T11:12:28.897Z,20.13
2024-02-21T11:14:34.187Z,16.73
2024-02-21T11:16:42.213Z,17.92
2024-02-21T11:18:44.581Z,13.98
2024-02-21T11:20:54.739Z,16.13
2024-02-21T11:22:57.382Z,10.15
2024-02-21T11:25:13.029Z,14.18
2024-02-21T11:27:25.921Z,15.80
2024-02-21T11:29:29.969Z,14.48
2024-02-21T11:31:47.022Z,14.23
2024-02-21T11:33:50.240Z,12.98
2024-02-21T11:35:54.381Z,10.43
2024-02-21T11:37:57.044Z,11.88
2024-02-21T11:39:59.374Z,11.70
2024-02-21T11:42:11.364Z,16.58
2024-02-21T11:44:13.504Z,9.57
2024-02-21T11:46:15.983Z,21.10
2024-02-21T11:48:18.294Z,10.98
2024-02-21T11:50:22.019Z,14.20
2024-02-21T11:52:29.540Z,10.20
2024-02-21T11:54:33.168Z,13.98
2024-02-21T11:56:36.603Z,13.27
2024-02-21T11:58:39.335Z,15.15
2024-02-21T12:00:42.544Z,12.30
2024-02-21T12:02:47.046Z,9.13
2024-02-21T12:04:50.556Z,10.32
2024-02-21T12:06:55.742Z,14.00
2024-02-21T12:08:59.848Z,14.77
2024-02-21T12:11:02.320Z,9.60
2024-02-21T12:13:09.368Z,12.70
2024-02-21T12:15:12.297Z,14.23
2024-02-21T12:17:14.686Z,16.35
2024-02-21T12:19:18.387Z,15.40
2024-02-21T12:21:20.572Z,15.13
2024-02-21T12:23:23.028Z,9.73
2024-02-21T12:25:27.272Z,11.27
2024-02-21T12:27:30.061Z,11.30
2024-02-21T12:29:32.382Z,12.13
2024-02-21T12:31:34.798Z,8.50
2024-02-21T12:33:37.125Z,16.58
2024-02-21T12:35:39.667Z,9.02
2024-02-21T12:37:42.638Z,10.73
2024-02-21T12:39:45.340Z,11.40
2024-02-21T12:41:47.612Z,10.52
2024-02-21T12:43:50.102Z,8.02
2024-02-21T12:45:52.347Z,13.15
2024-02-21T12:47:54.878Z,9.05
2024-02-21T12:49:58.096Z,8.90
2024-02-21T12:52:00.596Z,10.35
2024-02-21T12:54:04.264Z,7.25
2024-02-21T12:56:08.932Z,12.73
2024-02-21T12:58:11.094Z,7.60
2024-02-21T13:00:15.058Z,8.27
2024-02-21T13:02:17.303Z,10.90
2024-02-21T13:04:20.374Z,9.77
2024-02-21T13:06:22.703Z,7.95
2024-02-21T13:08:25.294Z,16.15
2024-02-21T13:10:27.896Z,12.60
2024-02-21T13:12:31.663Z,12.13
2024-02-21T13:14:34.360Z,17.73
2024-02-21T13:16:40.719Z,11.13
2024-02-21T13:18:44.284Z,20.67
2024-02-21T13:20:46.920Z,11.45
2024-02-21T13:22:49.274Z,11.43
2024-02-21T13:24:54.128Z,8.95
2024-02-21T13:26:57.550Z,16.48
2024-02-21T13:29:00.135Z,10.07
2024-02-21T13:31:02.674Z,11.38
2024-02-21T13:33:05.354Z,11.38
2024-02-21T13:35:07.793Z,10.68
2024-02-21T13:37:11.088Z,14.18
2024-02-21T13:39:16.654Z,13.38
2024-02-21T13:41:19.606Z,10.23
2024-02-21T13:43:22.983Z,10.32
2024-02-21T13:45:25.572Z,15.77
2024-02-21T13:47:27.971Z,12.48
2024-02-21T13:49:31.763Z,14.32
2024-02-21T13:51:37.299Z,9.32
2024-02-21T13:53:39.948Z,9.00
2024-02-21T13:55:42.363Z,12.88
2024-02-21T13:57:44.958Z,11.90
2024-02-21T13:59:47.096Z,13.68
2024-02-21T14:01:49.743Z,19.35
2024-02-21T14:03:51.946Z,7.45
2024-02-21T14:05:54.357Z,17.45
2024-02-21T14:07:57.197Z,6.90
2024-02-21T14:09:59.893Z,12.23
2024-02-21T14:12:02.379Z,12.60
2024-02-21T14:14:05.984Z,13.45
2024-02-21T14:16:14.887Z,17.67
2024-02-21T14:18:17.761Z,13.90
2024-02-21T14:20:20.223Z,10.77
2024-02-21T14:22:22.681Z,14.13
2024-02-21T14:24:25.378Z,10.02
2024-02-21T14:26:27.916Z,13.85
2024-02-21T14:28:30.176Z,11.02
2024-02-21T14:30:33.077Z,11.57
2024-02-21T14:32:35.727Z,13.13
2024-02-21T14:34:38.393Z,16.33
2024-02-21T14:36:41.939Z,10.48
2024-02-21T14:38:45.300Z,9.50
2024-02-21T14:40:47.909Z,14.02
2024-02-21T14:42:50.355Z,14.15
2024-02-21T14:44:52.490Z,11.60
2024-02-21T14:46:54.928Z,9.10
2024-02-21T14:48:57.675Z,9.20
2024-02-21T14:51:00.309Z,16.40
2024-02-21T14:53:02.444Z,13.15
2024-02-21T14:55:06.673Z,15.30
2024-02-21T14:57:08.881Z,15.55
2024-02-21T14:59:18.086Z,14.15
2024-02-21T15:01:23.951Z,14.10
2024-02-21T15:03:28.962Z,19.25
2024-02-21T15:05:32.270Z,8.85
2024-02-21T15:07:34.992Z,11.90
2024-02-21T15:09:37.270Z,11.10
2024-02-21T15:11:39.814Z,11.02
2024-02-21T15:13:42.097Z,11.77
2024-02-21T15:15:44.647Z,12.45
2024-02-21T15:17:46.894Z,13.30
2024-02-21T15:19:49.542Z,19.23
2024-02-21T15:21:51.925Z,17.58
2024-02-21T15:23:54.429Z,12.77
2024-02-21T15:25:56.706Z,12.13
2024-02-21T15:28:00.524Z,16.25
2024-02-21T15:30:03.907Z,15.07
2024-02-21T15:32:06.940Z,13.70
2024-02-21T15:34:09.304Z,12.27
2024-02-21T15:36:11.899Z,13.23
2024-02-21T15:38:14.937Z,12.75
2024-02-21T15:40:17.563Z,14.63
2024-02-21T15:42:19.736Z,12.80
2024-02-21T15:44:22.808Z,18.60
2024-02-21T15:46:25.073Z,12.60
2024-02-21T15:48:27.689Z,13.82
2024-02-21T15:50:30.812Z,17.45
2024-02-21T15:52:33.363Z,10.95
2024-02-21T15:54:37.364Z,10.40
2024-02-21T15:56:40.253Z,11.10
2024-02-21T15:58:57.824Z,12.80
2024-02-21T16:01:00.365Z,17.73
2024-02-21T16:03:04.629Z,11.70
2024-02-21T16:05:12.448Z,11.43
2024-02-21T16:07:15.063Z,9.95
2024-02-21T16:09:17.943Z,8.93
2024-02-21T16:11:20.331Z,14.77
2024-02-21T16:13:23.310Z,14.77
2024-02-21T16:15:25.473Z,10.73
2024-02-21T16:17:28.036Z,12.13
2024-02-21T16:19:30.179Z,14.02
2024-02-21T16:21:32.637Z,18.80
2024-02-21T16:23:34.897Z,11.50
2024-02-21T16:25:37.424Z,17.73
2024-02-21T16:27:41.957Z,14.07
2024-02-21T16:29:44.421Z,14.32
2024-02-21T16:31:46.775Z,19.55
2024-02-21T16:33:49.368Z,13.20
2024-02-21T16:35:52.313Z,15.10
2024-02-21T16:37:55.350Z,20.23
2024-02-21T16:39:58.016Z,15.27
2024-02-21T16:42:04.255Z,14.85
2024-02-21T16:44:06.500Z,17.98
2024-02-21T16:46:08.974Z,12.38
2024-02-21T16:48:11.172Z,18.02
2024-02-21T16:50:14.365Z,17.70
2024-02-21T16:52:16.656Z,13.82
2024-02-21T16:54:23.379Z,13.90
2024-02-21T16:56:25.490Z,11.57
2024-02-21T16:58:27.952Z,14.05
2024-02-21T17:00:30.184Z,13.73
2024-02-21T17:02:36.115Z,11.98
2024-02-21T17:04:40.235Z,14.43
2024-02-21T17:06:43.560Z,14.25
2024-02-21T17:08:47.918Z,16.20
2024-02-21T17:10:51.427Z,10.88
2024-02-21T17:12:53.859Z,13.55
2024-02-21T17:14:56.919Z,16.98
2024-02-21T17:17:01.085Z,14.85
2024-02-21T17:19:06.226Z,12.52
2024-02-21T17:21:08.622Z,14.18
2024-02-21T17:23:13.795Z,14.13
2024-02-21T17:25:16.684Z,12.25
2024-02-21T17:27:22.752Z,12.77
2024-02-21T17:29:25.021Z,15.90
2024-02-21T17:31:29.136Z,12.80
2024-02-21T17:33:32.140Z,15.75
2024-02-21T17:35:36.165Z,14.98
2024-02-21T17:37:38.477Z,15.05
2024-02-21T17:39:41.036Z,18.63
2024-02-21T17:41:43.268Z,13.55
2024-02-21T17:43:48.621Z,11.45
2024-02-21T17:45:51.672Z,14.57
2024-02-21T17:47:54.339Z,17.48
2024-02-21T17:49:56.685Z,12.00
2024-02-21T17:51:59.142Z,12.02
2024-02-21T17:54:01.294Z,17.25
2024-02-21T17:56:05.250Z,21.73
2024-02-21T17:58:08.748Z,16.55
2024-02-21T18:00:13.001Z,18.98
2024-02-21T18:02:21.352Z,19.05
2024-02-21T18:04:24.649Z,23.48
2024-02-21T18:06:27.349Z,19.48
2024-02-21T18:08:30.513Z,13.18
2024-02-21T18:10:33.156Z,20.58
2024-02-21T18:12:37.471Z,16.75
2024-02-21T18:14:39.704Z,17.48
2024-02-21T18:16:42.623Z,18.13
2024-02-21T18:18:44.867Z,16.33
2024-02-21T18:20:51.054Z,25.88
2024-02-21T18:22:53.823Z,15.88
2024-02-21T18:24:58.390Z,13.30
2024-02-21T18:27:01.413Z,18.08
2024-02-21T18:29:03.995Z,17.38
2024-02-21T18:31:07.450Z,11.70
2024-02-21T18:33:11.812Z,17.17
2024-02-21T18:35:16.736Z,19.63
2024-02-21T18:37:22.658Z,18.50
2024-02-21T18:39:25.373Z,14.25
2024-02-21T18:41:30.673Z,19.33
2024-02-21T18:43:33.195Z,16.85
2024-02-21T18:45:36.912Z,15.82
2024-02-21T18:47:39.126Z,15.00
2024-02-21T18:49:45.189Z,22.45
2024-02-21T18:51:47.836Z,15.52
2024-02-21T18:53:50.366Z,14.73
2024-02-21T18:55:52.731Z,16.70
2024-02-21T18:57:55.322Z,15.30
2024-02-21T18:59:57.474Z,17.45
2024-02-21T19:02:00.025Z,15.48
2024-02-21T19:04:02.313Z,18.83
2024-02-21T19:06:05.120Z,19.55
2024-02-21T19:08:07.567Z,18.35
2024-02-21T19:10:10.573Z,15.43
2024-02-21T19:12:13.692Z,14.60
2024-02-21T19:14:16.606Z,14.02
2024-02-21T19:16:18.812Z,13.30
2024-02-21T19:18:21.775Z,17.30
2024-02-21T19:20:25.688Z,18.55
2024-02-21T19:22:30.673Z,12.50
2024-02-21T19:24:32.914Z,13.38
2024-02-21T19:26:35.669Z,12.00
2024-02-21T19:28:38.025Z,14.38
2024-02-21T19:30:41.122Z,13.10
2024-02-21T19:32:44.065Z,16.85
2024-02-21T19:34:46.989Z,12.93
2024-02-21T19:36:50.466Z,12.07
2024-02-21T19:38:53.084Z,13.15
2024-02-21T19:40:55.595Z,14.55
2024-02-21T19:43:02.323Z,11.00
2024-02-21T19:45:05.423Z,18.27
2024-02-21T19:47:07.924Z,15.20
2024-02-21T19:49:10.204Z,13.70
2024-02-21T19:51:12.900Z,12.80
2024-02-21T19:53:15.113Z,11.75
2024-02-21T19:55:18.648Z,7.80
2024-02-21T19:57:22.337Z,14.43
2024-02-21T19:59:24.947Z,12.20
2024-02-21T20:01:27.292Z,14.07
2024-02-21T20:03:29.955Z,13.10
2024-02-21T20:05:33.791Z,15.85
2024-02-21T20:07:36.939Z,11.40
2024-02-21T20:09:42.473Z,11.07
2024-02-21T20:11:45.505Z,10.45
2024-02-21T20:13:47.823Z,9.18
2024-02-21T20:15:50.282Z,10.77
2024-02-21T20:17:52.485Z,11.75
2024-02-21T20:19:56.592Z,14.57
2024-02-21T20:21:59.322Z,10.45
2024-02-21T20:24:02.824Z,13.35
2024-02-21T20:26:06.952Z,14.65
2024-02-21T20:28:11.341Z,17.05
2024-02-21T20:30:14.758Z,10.10
2024-02-21T20:32:17.334Z,9.98
2024-02-21T20:34:19.689Z,13.38
2024-02-21T20:36:22.214Z,13.55
2024-02-21T20:38:24.490Z,15.27
2024-02-21T20:40:27.270Z,15.57
2024-02-21T20:42:29.497Z,10.02
2024-02-21T20:44:32.000Z,10.50
2024-02-21T20:46:34.423Z,10.32
2024-02-21T20:48:36.952Z,9.38
2024-02-21T20:50:39.267Z,10.27
2024-02-21T20:52:42.349Z,9.82
2024-02-21T20:54:44.662Z,13.05
2024-02-21T20:56:47.696Z,10.98
2024-02-21T20:58:50.381Z,10.25
2024-02-21T21:00:52.997Z,8.98
2024-02-21T21:02:55.443Z,14.18
2024-02-21T21:04:59.287Z,11.30
2024-02-21T21:07:02.569Z,10.65
2024-02-21T21:09:05.153Z,13.65
2024-02-21T21:11:07.590Z,8.63
2024-02-21T21:13:16.211Z,13.15
2024-02-21T21:15:29.215Z,12.32
2024-02-21T21:17:32.569Z,16.13
2024-02-21T21:19:34.962Z,13.27
2024-02-21T21:21:37.467Z,15.65
2024-02-21T21:23:41.954Z,9.05
2024-02-21T21:25:44.455Z,16.88
2024-02-21T21:27:48.031Z,7.35
2024-02-21T21:29:53.990Z,11.35
2024-02-21T21:31:56.305Z,11.60
2024-02-21T21:33:58.880Z,9.05
2024-02-21T21:36:02.430Z,11.88
2024-02-21T21:38:07.820Z,8.77
2024-02-21T21:40:13.537Z,8.73
2024-02-21T21:42:16.058Z,12.73
2024-02-21T21:44:18.800Z,8.15
2024-02-21T21:46:22.173Z,9.13
2024-02-21T21:48:24.440Z,12.60
2024-02-21T21:50:27.017Z,9.38
2024-02-21T21:52:29.395Z,8.93
2024-02-21T21:54:31.849Z,13.02
2024-02-21T21:56:35.557Z,10.43
2024-02-21T21:58:38.145Z,6.25
2024-02-21T22:00:40.350Z,10.68
2024-02-21T22:02:45.421Z,11.40
2024-02-21T22:04:50.015Z,12.60
2024-02-21T22:06:52.641Z,11.60
2024-02-21T22:08:54.845Z,11.23
2024-02-21T22:10:57.278Z,9.38
2024-02-21T22:12:59.630Z,13.18
2024-02-21T22:15:02.189Z,10.57
2024-02-21T22:17:04.625Z,11.65
2024-02-21T22:19:07.254Z,12.10
2024-02-21T22:21:09.460Z,17.02
2024-02-21T22:23:12.026Z,9.10
2024-02-21T22:25:14.400Z,13.13
2024-02-21T22:27:19.481Z,10.13
2024-02-21T22:29:21.710Z,12.60
2024-02-21T22:31:24.263Z,16.80
2024-02-21T22:33:26.792Z,12.18
2024-02-21T22:35:29.340Z,11.35
2024-02-21T22:37:31.844Z,13.73
2024-02-21T22:39:34.343Z,10.93
2024-02-21T22:41:36.828Z,7.28
2024-02-21T22:43:39.330Z,10.30
2024-02-21T22:45:41.716Z,8.52
2024-02-21T22:47:44.695Z,8.43
2024-02-21T22:49:46.960Z,11.75
2024-02-21T22:51:53.583Z,11.40
2024-02-21T22:53:56.477Z,13.00
2024-02-21T22:55:58.913Z,13.20
2024-02-21T22:58:01.173Z,14.77
2024-02-21T23:00:04.233Z,14.02
2024-02-21T23:02:06.811Z,11.63
2024-02-21T23:04:11.500Z,11.82
2024-02-21T23:06:13.702Z,11.05
2024-02-21T23:08:16.580Z,11.25
2024-02-21T23:10:19.230Z,18.00
2024-02-21T23:12:23.483Z,10.38
2024-02-21T23:14:25.841Z,11.95
2024-02-21T23:16:28.500Z,13.70
2024-02-21T23:18:30.806Z,16.25
2024-02-21T23:20:33.410Z,12.50
2024-02-21T23:22:36.397Z,14.95
2024-02-21T23:24:38.914Z,12.98
2024-02-21T23:26:41.781Z,14.27
2024-02-21T23:28:45.348Z,13.70
2024-02-21T23:30:47.761Z,11.75
2024-02-21T23:32:50.330Z,12.95
2024-02-21T23:34:52.546Z,17.48
2024-02-21T23:36:55.150Z,11.05
2024-02-21T23:38:57.345Z,10.38
2024-02-21T23:41:00.650Z,11.25
2024-02-21T23:43:02.955Z,14.32
2024-02-21T23:45:06.478Z,7.82
2024-02-21T23:47:08.792Z,13.30
2024-02-21T23:49:11.445Z,14.32
2024-02-21T23:51:13.633Z,10.55
2024-02-21T23:53:16.521Z,8.13
2024-02-21T23:55:18.731Z,11.15
2024-02-21T23:57:21.194Z,10.52
2024-02-21T23:59:23.486Z,13.65
